sensor_id;sensor_type;location;lat;lon;timestamp;temperature;humidity
18797;DHT22;9526;52.612;13.300;2023-11-21T00:00:31;8.00;99.90
18797;DHT22;9526;52.612;13.300;2023-11-21T00:02:56;8.00;99.90
18797;DHT22;9526;52.612;13.300;2023-11-21T00:05:20;7.90;99.90
18797;DHT22;9526;52.612;13.300;2023-11-21T00:07:46;7.90;99.90
18797;DHT22;9526;52.612;13.300;2023-11-21T00:10:12;7.90;99.90
18797;DHT22;9526;52.612;13.300;2023-11-21T00:12:39;7.90;99.90
18797;DHT22;9526;52.612;13.300;2023-11-21T00:15:05;7.90;99.90
18797;DHT22;9526;52.612;13.300;2023-11-21T00:17:33;7.90;99.90
18797;DHT22;9526;52.612;13.300;2023-11-21T00:19:58;7.80;99.90
18797;DHT22;9526;52.612;13.300;2023-11-21T00:22:22;7.80;99.90
18797;DHT22;9526;52.612;13.300;2023-11-21T00:24:46;7.80;99.90
18797;DHT22;9526;52.612;13.300;2023-11-21T00:27:11;7.70;99.90
18797;DHT22;9526;52.612;13.300;2023-11-21T00:29:35;7.70;99.90
18797;DHT22;9526;52.612;13.300;2023-11-21T00:31:58;7.70;99.90
18797;DHT22;9526;52.612;13.300;2023-11-21T00:34:22;7.70;99.90
18797;DHT22;9526;52.612;13.300;2023-11-21T00:36:46;7.70;99.90
18797;DHT22;9526;52.612;13.300;2023-11-21T00:39:09;7.70;99.90
18797;DHT22;9526;52.612;13.300;2023-11-21T00:41:34;7.70;99.90
18797;DHT22;9526;52.612;13.300;2023-11-21T00:44:00;7.70;99.90
18797;DHT22;9526;52.612;13.300;2023-11-21T00:46:24;7.70;99.90
18797;DHT22;9526;52.612;13.300;2023-11-21T00:48:49;7.60;99.90
18797;DHT22;9526;52.612;13.300;2023-11-21T00:51:12;7.60;99.90
18797;DHT22;9526;52.612;13.300;2023-11-21T00:53:36;7.60;99.90
18797;DHT22;9526;52.612;13.300;2023-11-21T00:56:00;7.50;99.90
18797;DHT22;9526;52.612;13.300;2023-11-21T00:58:25;7.50;99.90
18797;DHT22;9526;52.612;13.300;2023-11-21T01:00:50;7.40;99.90
18797;DHT22;9526;52.612;13.300;2023-11-21T01:03:14;7.40;99.90
18797;DHT22;9526;52.612;13.300;2023-11-21T01:05:38;7.40;99.90
18797;DHT22;9526;52.612;13.300;2023-11-21T01:08:01;7.40;99.90
18797;DHT22;9526;52.612;13.300;2023-11-21T01:10:25;7.40;99.90
18797;DHT22;9526;52.612;13.300;2023-11-21T01:12:49;7.40;99.90
18797;DHT22;9526;52.612;13.300;2023-11-21T01:15:13;7.40;99.90
18797;DHT22;9526;52.612;13.300;2023-11-21T01:17:39;7.40;99.90
18797;DHT22;9526;52.612;13.300;2023-11-21T01:20:04;7.50;99.90
18797;DHT22;9526;52.612;13.300;2023-11-21T01:22:34;7.40;99.90
18797;DHT22;9526;52.612;13.300;2023-11-21T01:24:58;7.30;99.90
18797;DHT22;9526;52.612;13.300;2023-11-21T01:27:22;7.40;99.90
18797;DHT22;9526;52.612;13.300;2023-11-21T01:29:46;7.40;99.90
18797;DHT22;9526;52.612;13.300;2023-11-21T01:32:10;7.30;99.90
18797;DHT22;9526;52.612;13.300;2023-11-21T01:34:36;7.30;99.90
18797;DHT22;9526;52.612;13.300;2023-11-21T01:37:00;7.20;99.90
18797;DHT22;9526;52.612;13.300;2023-11-21T01:39:26;7.30;99.90
18797;DHT22;9526;52.612;13.300;2023-11-21T01:41:51;7.30;99.90
18797;DHT22;9526;52.612;13.300;2023-11-21T01:44:15;7.20;99.90
18797;DHT22;9526;52.612;13.300;2023-11-21T01:46:39;7.20;99.90
18797;DHT22;9526;52.612;13.300;2023-11-21T01:49:04;7.20;99.90
18797;DHT22;9526;52.612;13.300;2023-11-21T01:51:29;7.10;99.90
18797;DHT22;9526;52.612;13.300;2023-11-21T01:53:53;7.10;99.90
18797;DHT22;9526;52.612;13.300;2023-11-21T01:56:17;7.00;99.90
18797;DHT22;9526;52.612;13.300;2023-11-21T01:58:42;7.00;99.90
18797;DHT22;9526;52.612;13.300;2023-11-21T02:01:06;7.00;99.90
18797;DHT22;9526;52.612;13.300;2023-11-21T02:03:30;6.90;99.90
18797;DHT22;9526;52.612;13.300;2023-11-21T02:05:54;6.90;99.90
18797;DHT22;9526;52.612;13.300;2023-11-21T02:08:20;6.90;99.90
18797;DHT22;9526;52.612;13.300;2023-11-21T02:10:44;6.90;99.90
18797;DHT22;9526;52.612;13.300;2023-11-21T02:13:08;6.90;99.90
18797;DHT22;9526;52.612;13.300;2023-11-21T02:15:33;6.90;99.90
18797;DHT22;9526;52.612;13.300;2023-11-21T02:18:01;6.90;99.90
18797;DHT22;9526;52.612;13.300;2023-11-21T02:20:26;6.90;99.90
18797;DHT22;9526;52.612;13.300;2023-11-21T02:22:54;6.90;99.90
18797;DHT22;9526;52.612;13.300;2023-11-21T02:25:21;7.00;99.90
18797;DHT22;9526;52.612;13.300;2023-11-21T02:27:46;6.90;99.90
18797;DHT22;9526;52.612;13.300;2023-11-21T02:30:12;6.90;99.90
18797;DHT22;9526;52.612;13.300;2023-11-21T02:32:36;6.90;99.90
18797;DHT22;9526;52.612;13.300;2023-11-21T02:35:10;6.90;99.90
18797;DHT22;9526;52.612;13.300;2023-11-21T02:37:34;6.80;99.90
18797;DHT22;9526;52.612;13.300;2023-11-21T02:40:00;6.90;99.90
18797;DHT22;9526;52.612;13.300;2023-11-21T02:42:28;6.90;99.90
18797;DHT22;9526;52.612;13.300;2023-11-21T02:44:52;6.90;99.90
18797;DHT22;9526;52.612;13.300;2023-11-21T02:47:16;6.90;99.90
18797;DHT22;9526;52.612;13.300;2023-11-21T02:49:40;6.90;99.90
18797;DHT22;9526;52.612;13.300;2023-11-21T02:52:05;6.80;99.90
18797;DHT22;9526;52.612;13.300;2023-11-21T02:54:29;6.80;99.90
18797;DHT22;9526;52.612;13.300;2023-11-21T02:56:55;6.90;99.90
18797;DHT22;9526;52.612;13.300;2023-11-21T02:59:19;6.80;99.90
18797;DHT22;9526;52.612;13.300;2023-11-21T03:01:43;6.80;99.90
18797;DHT22;9526;52.612;13.300;2023-11-21T03:04:07;6.80;99.90
18797;DHT22;9526;52.612;13.300;2023-11-21T03:06:30;6.80;99.90
18797;DHT22;9526;52.612;13.300;2023-11-21T03:08:54;6.70;99.90
18797;DHT22;9526;52.612;13.300;2023-11-21T03:11:18;6.80;99.90
18797;DHT22;9526;52.612;13.300;2023-11-21T03:13:43;6.80;99.90
18797;DHT22;9526;52.612;13.300;2023-11-21T03:16:08;6.70;99.90
18797;DHT22;9526;52.612;13.300;2023-11-21T03:18:32;6.70;99.90
18797;DHT22;9526;52.612;13.300;2023-11-21T03:20:56;6.60;99.90
18797;DHT22;9526;52.612;13.300;2023-11-21T03:23:21;6.60;99.90
18797;DHT22;9526;52.612;13.300;2023-11-21T03:25:45;6.60;99.90
18797;DHT22;9526;52.612;13.300;2023-11-21T03:28:09;6.60;99.90
18797;DHT22;9526;52.612;13.300;2023-11-21T03:30:35;6.60;99.90
18797;DHT22;9526;52.612;13.300;2023-11-21T03:32:58;6.50;99.90
18797;DHT22;9526;52.612;13.300;2023-11-21T03:35:22;6.50;99.90
18797;DHT22;9526;52.612;13.300;2023-11-21T03:37:46;6.50;99.90
18797;DHT22;9526;52.612;13.300;2023-11-21T03:40:11;6.40;99.90
18797;DHT22;9526;52.612;13.300;2023-11-21T03:42:35;6.40;99.90
18797;DHT22;9526;52.612;13.300;2023-11-21T03:44:59;6.40;99.90
18797;DHT22;9526;52.612;13.300;2023-11-21T03:47:24;6.40;99.90
18797;DHT22;9526;52.612;13.300;2023-11-21T03:49:49;6.40;99.90
18797;DHT22;9526;52.612;13.300;2023-11-21T03:52:12;6.40;99.90
18797;DHT22;9526;52.612;13.300;2023-11-21T03:54:36;6.40;99.90
18797;DHT22;9526;52.612;13.300;2023-11-21T03:57:02;6.40;99.90
18797;DHT22;9526;52.612;13.300;2023-11-21T03:59:26;6.50;99.90
18797;DHT22;9526;52.612;13.300;2023-11-21T04:01:50;6.50;99.90
18797;DHT22;9526;52.612;13.300;2023-11-21T04:04:15;6.50;99.90
18797;DHT22;9526;52.612;13.300;2023-11-21T04:06:39;6.50;99.90
18797;DHT22;9526;52.612;13.300;2023-11-21T04:09:04;6.40;99.90
18797;DHT22;9526;52.612;13.300;2023-11-21T04:11:28;6.40;99.90
18797;DHT22;9526;52.612;13.300;2023-11-21T04:13:54;6.40;99.90
18797;DHT22;9526;52.612;13.300;2023-11-21T04:16:18;6.40;99.90
18797;DHT22;9526;52.612;13.300;2023-11-21T04:18:42;6.30;99.90
18797;DHT22;9526;52.612;13.300;2023-11-21T04:21:08;6.30;99.90
18797;DHT22;9526;52.612;13.300;2023-11-21T04:23:32;6.30;99.90
18797;DHT22;9526;52.612;13.300;2023-11-21T04:25:56;6.40;99.90
18797;DHT22;9526;52.612;13.300;2023-11-21T04:28:19;6.40;99.90
18797;DHT22;9526;52.612;13.300;2023-11-21T04:30:43;6.40;99.90
18797;DHT22;9526;52.612;13.300;2023-11-21T04:33:07;6.30;99.90
18797;DHT22;9526;52.612;13.300;2023-11-21T04:35:31;6.30;99.90
18797;DHT22;9526;52.612;13.300;2023-11-21T04:37:56;6.30;99.90
18797;DHT22;9526;52.612;13.300;2023-11-21T04:40:20;6.30;99.90
18797;DHT22;9526;52.612;13.300;2023-11-21T04:42:44;6.20;99.90
18797;DHT22;9526;52.612;13.300;2023-11-21T04:45:09;6.20;99.90
18797;DHT22;9526;52.612;13.300;2023-11-21T04:47:35;6.30;99.90
18797;DHT22;9526;52.612;13.300;2023-11-21T04:49:59;6.30;99.90
18797;DHT22;9526;52.612;13.300;2023-11-21T04:52:25;6.30;99.90
18797;DHT22;9526;52.612;13.300;2023-11-21T04:55:05;6.20;99.90
18797;DHT22;9526;52.612;13.300;2023-11-21T04:57:34;6.20;99.90
18797;DHT22;9526;52.612;13.300;2023-11-21T05:00:00;6.20;99.90
18797;DHT22;9526;52.612;13.300;2023-11-21T05:02:28;6.20;99.90
18797;DHT22;9526;52.612;13.300;2023-11-21T05:04:57;6.20;99.90
18797;DHT22;9526;52.612;13.300;2023-11-21T05:07:22;6.20;99.90
18797;DHT22;9526;52.612;13.300;2023-11-21T05:09:56;6.20;99.90
18797;DHT22;9526;52.612;13.300;2023-11-21T05:12:21;6.10;99.90
18797;DHT22;9526;52.612;13.300;2023-11-21T05:14:45;6.10;99.90
18797;DHT22;9526;52.612;13.300;2023-11-21T05:17:10;6.10;99.90
18797;DHT22;9526;52.612;13.300;2023-11-21T05:19:35;6.20;99.90
18797;DHT22;9526;52.612;13.300;2023-11-21T05:21:59;6.10;99.90
18797;DHT22;9526;52.612;13.300;2023-11-21T05:24:24;6.10;99.90
18797;DHT22;9526;52.612;13.300;2023-11-21T05:26:49;6.10;99.90
18797;DHT22;9526;52.612;13.300;2023-11-21T05:29:13;6.00;99.90
18797;DHT22;9526;52.612;13.300;2023-11-21T05:31:42;6.00;99.90
18797;DHT22;9526;52.612;13.300;2023-11-21T05:34:06;6.00;99.90
18797;DHT22;9526;52.612;13.300;2023-11-21T05:36:31;6.00;99.90
18797;DHT22;9526;52.612;13.300;2023-11-21T05:38:55;6.00;99.90
18797;DHT22;9526;52.612;13.300;2023-11-21T05:41:18;6.00;99.90
18797;DHT22;9526;52.612;13.300;2023-11-21T05:43:44;6.00;99.90
18797;DHT22;9526;52.612;13.300;2023-11-21T05:46:07;6.00;99.90
18797;DHT22;9526;52.612;13.300;2023-11-21T05:48:31;5.90;99.90
18797;DHT22;9526;52.612;13.300;2023-11-21T05:50:55;5.90;99.90
18797;DHT22;9526;52.612;13.300;2023-11-21T05:53:19;5.90;99.90
18797;DHT22;9526;52.612;13.300;2023-11-21T05:55:44;5.90;99.90
18797;DHT22;9526;52.612;13.300;2023-11-21T05:58:08;5.90;99.90
18797;DHT22;9526;52.612;13.300;2023-11-21T06:00:33;5.90;99.90
18797;DHT22;9526;52.612;13.300;2023-11-21T06:02:57;5.90;99.90
18797;DHT22;9526;52.612;13.300;2023-11-21T06:05:23;5.80;99.90
18797;DHT22;9526;52.612;13.300;2023-11-21T06:07:49;5.80;99.90
18797;DHT22;9526;52.612;13.300;2023-11-21T06:10:12;5.80;99.90
18797;DHT22;9526;52.612;13.300;2023-11-21T06:12:37;5.80;99.90
18797;DHT22;9526;52.612;13.300;2023-11-21T06:15:03;5.70;99.90
18797;DHT22;9526;52.612;13.300;2023-11-21T06:17:29;5.70;99.90
18797;DHT22;9526;52.612;13.300;2023-11-21T06:19:52;5.80;99.90
18797;DHT22;9526;52.612;13.300;2023-11-21T06:22:16;5.80;99.90
18797;DHT22;9526;52.612;13.300;2023-11-21T06:24:40;5.70;99.90
18797;DHT22;9526;52.612;13.300;2023-11-21T06:27:05;5.80;99.90
18797;DHT22;9526;52.612;13.300;2023-11-21T06:29:29;5.70;99.90
18797;DHT22;9526;52.612;13.300;2023-11-21T06:31:54;5.60;99.90
18797;DHT22;9526;52.612;13.300;2023-11-21T06:34:19;5.70;99.90
18797;DHT22;9526;52.612;13.300;2023-11-21T06:36:45;5.70;99.90
18797;DHT22;9526;52.612;13.300;2023-11-21T06:39:09;5.70;99.90
18797;DHT22;9526;52.612;13.300;2023-11-21T06:41:34;5.60;99.90
18797;DHT22;9526;52.612;13.300;2023-11-21T06:44:01;5.60;99.90
18797;DHT22;9526;52.612;13.300;2023-11-21T06:46:38;5.60;99.90
18797;DHT22;9526;52.612;13.300;2023-11-21T06:49:06;5.60;99.90
18797;DHT22;9526;52.612;13.300;2023-11-21T06:51:31;5.60;99.90
18797;DHT22;9526;52.612;13.300;2023-11-21T06:53:57;5.50;99.90
18797;DHT22;9526;52.612;13.300;2023-11-21T06:56:24;5.50;99.90
18797;DHT22;9526;52.612;13.300;2023-11-21T06:59:03;5.50;99.90
18797;DHT22;9526;52.612;13.300;2023-11-21T07:01:44;5.50;99.90
18797;DHT22;9526;52.612;13.300;2023-11-21T07:04:08;5.50;99.90
18797;DHT22;9526;52.612;13.300;2023-11-21T07:06:34;5.50;99.90
18797;DHT22;9526;52.612;13.300;2023-11-21T07:08:59;5.50;99.90
18797;DHT22;9526;52.612;13.300;2023-11-21T07:11:23;5.50;99.90
18797;DHT22;9526;52.612;13.300;2023-11-21T07:13:47;5.60;99.90
18797;DHT22;9526;52.612;13.300;2023-11-21T07:16:12;5.60;99.90
18797;DHT22;9526;52.612;13.300;2023-11-21T07:18:37;5.60;99.90
18797;DHT22;9526;52.612;13.300;2023-11-21T07:21:03;5.60;99.90
18797;DHT22;9526;52.612;13.300;2023-11-21T07:23:32;5.70;99.90
18797;DHT22;9526;52.612;13.300;2023-11-21T07:25:56;5.70;99.90
18797;DHT22;9526;52.612;13.300;2023-11-21T07:28:20;5.70;99.90
18797;DHT22;9526;52.612;13.300;2023-11-21T07:30:45;5.70;99.90
18797;DHT22;9526;52.612;13.300;2023-11-21T07:33:11;5.70;99.90
18797;DHT22;9526;52.612;13.300;2023-11-21T07:35:35;5.80;99.90
18797;DHT22;9526;52.612;13.300;2023-11-21T07:37:59;5.70;99.90
18797;DHT22;9526;52.612;13.300;2023-11-21T07:40:27;5.70;99.90
18797;DHT22;9526;52.612;13.300;2023-11-21T07:42:55;5.70;99.90
18797;DHT22;9526;52.612;13.300;2023-11-21T07:45:23;5.80;99.90
18797;DHT22;9526;52.612;13.300;2023-11-21T07:47:49;5.80;99.90
18797;DHT22;9526;52.612;13.300;2023-11-21T07:50:15;5.80;99.90
18797;DHT22;9526;52.612;13.300;2023-11-21T07:52:39;5.80;99.90
18797;DHT22;9526;52.612;13.300;2023-11-21T07:55:04;5.80;99.90
18797;DHT22;9526;52.612;13.300;2023-11-21T07:57:31;5.80;99.90
18797;DHT22;9526;52.612;13.300;2023-11-21T07:59:55;5.80;99.90
18797;DHT22;9526;52.612;13.300;2023-11-21T08:02:19;5.70;99.90
18797;DHT22;9526;52.612;13.300;2023-11-21T08:04:43;5.70;99.90
18797;DHT22;9526;52.612;13.300;2023-11-21T08:07:07;5.60;99.90
18797;DHT22;9526;52.612;13.300;2023-11-21T08:09:31;5.60;99.90
18797;DHT22;9526;52.612;13.300;2023-11-21T08:11:56;5.60;99.90
18797;DHT22;9526;52.612;13.300;2023-11-21T08:14:24;5.60;99.90
18797;DHT22;9526;52.612;13.300;2023-11-21T08:16:48;5.70;99.90
18797;DHT22;9526;52.612;13.300;2023-11-21T08:19:12;5.60;99.90
18797;DHT22;9526;52.612;13.300;2023-11-21T08:21:36;5.70;99.90
18797;DHT22;9526;52.612;13.300;2023-11-21T08:24:02;5.70;99.90
18797;DHT22;9526;52.612;13.300;2023-11-21T08:26:26;5.70;99.90
18797;DHT22;9526;52.612;13.300;2023-11-21T08:28:50;5.70;99.90
18797;DHT22;9526;52.612;13.300;2023-11-21T08:31:16;5.70;99.90
18797;DHT22;9526;52.612;13.300;2023-11-21T08:33:40;5.80;99.90
18797;DHT22;9526;52.612;13.300;2023-11-21T08:36:07;5.80;99.90
18797;DHT22;9526;52.612;13.300;2023-11-21T08:38:33;5.80;99.90
18797;DHT22;9526;52.612;13.300;2023-11-21T08:40:58;5.80;99.90
18797;DHT22;9526;52.612;13.300;2023-11-21T08:43:22;5.80;99.90
18797;DHT22;9526;52.612;13.300;2023-11-21T08:45:46;5.70;99.90
18797;DHT22;9526;52.612;13.300;2023-11-21T08:48:12;5.60;99.90
18797;DHT22;9526;52.612;13.300;2023-11-21T08:50:35;5.60;99.90
18797;DHT22;9526;52.612;13.300;2023-11-21T08:52:59;5.60;99.90
18797;DHT22;9526;52.612;13.300;2023-11-21T08:55:23;5.60;99.90
18797;DHT22;9526;52.612;13.300;2023-11-21T08:57:47;5.60;99.90
18797;DHT22;9526;52.612;13.300;2023-11-21T09:00:11;5.60;99.90
18797;DHT22;9526;52.612;13.300;2023-11-21T09:02:37;5.60;99.90
18797;DHT22;9526;52.612;13.300;2023-11-21T09:05:06;5.60;99.90
18797;DHT22;9526;52.612;13.300;2023-11-21T09:07:33;5.70;99.90
18797;DHT22;9526;52.612;13.300;2023-11-21T09:09:58;5.70;99.90
18797;DHT22;9526;52.612;13.300;2023-11-21T09:12:23;5.70;99.90
18797;DHT22;9526;52.612;13.300;2023-11-21T09:14:51;5.60;99.90
18797;DHT22;9526;52.612;13.300;2023-11-21T09:17:15;5.70;99.90
18797;DHT22;9526;52.612;13.300;2023-11-21T09:19:40;5.70;99.90
18797;DHT22;9526;52.612;13.300;2023-11-21T09:22:07;5.80;99.90
18797;DHT22;9526;52.612;13.300;2023-11-21T09:24:31;5.70;99.90
18797;DHT22;9526;52.612;13.300;2023-11-21T09:26:56;5.80;99.90
18797;DHT22;9526;52.612;13.300;2023-11-21T09:29:19;5.80;99.90
18797;DHT22;9526;52.612;13.300;2023-11-21T09:31:44;5.70;99.90
18797;DHT22;9526;52.612;13.300;2023-11-21T09:34:08;5.80;99.90
18797;DHT22;9526;52.612;13.300;2023-11-21T09:36:33;5.80;99.90
18797;DHT22;9526;52.612;13.300;2023-11-21T09:38:58;5.80;99.90
18797;DHT22;9526;52.612;13.300;2023-11-21T09:41:30;5.80;99.90
18797;DHT22;9526;52.612;13.300;2023-11-21T09:43:58;5.80;99.90
18797;DHT22;9526;52.612;13.300;2023-11-21T09:46:23;5.80;99.90
18797;DHT22;9526;52.612;13.300;2023-11-21T09:48:51;5.80;99.90
18797;DHT22;9526;52.612;13.300;2023-11-21T09:51:15;5.80;99.90
18797;DHT22;9526;52.612;13.300;2023-11-21T09:53:42;5.80;99.90
18797;DHT22;9526;52.612;13.300;2023-11-21T09:56:09;5.80;99.90
18797;DHT22;9526;52.612;13.300;2023-11-21T09:58:33;5.80;99.90
18797;DHT22;9526;52.612;13.300;2023-11-21T10:00:59;5.70;99.90
18797;DHT22;9526;52.612;13.300;2023-11-21T10:03:25;5.70;99.90
18797;DHT22;9526;52.612;13.300;2023-11-21T10:05:50;5.70;99.90
18797;DHT22;9526;52.612;13.300;2023-11-21T10:08:15;5.70;99.90
18797;DHT22;9526;52.612;13.300;2023-11-21T10:10:42;5.70;99.90
18797;DHT22;9526;52.612;13.300;2023-11-21T10:13:11;5.70;99.90
18797;DHT22;9526;52.612;13.300;2023-11-21T10:15:41;5.60;99.90
18797;DHT22;9526;52.612;13.300;2023-11-21T10:18:11;5.50;99.90
18797;DHT22;9526;52.612;13.300;2023-11-21T10:20:37;5.50;99.90
18797;DHT22;9526;52.612;13.300;2023-11-21T10:23:01;5.50;99.90
18797;DHT22;9526;52.612;13.300;2023-11-21T10:25:25;5.40;99.90
18797;DHT22;9526;52.612;13.300;2023-11-21T10:27:49;5.40;99.90
18797;DHT22;9526;52.612;13.300;2023-11-21T10:30:15;5.40;99.90
18797;DHT22;9526;52.612;13.300;2023-11-21T10:32:39;5.40;99.90
18797;DHT22;9526;52.612;13.300;2023-11-21T10:35:05;5.40;99.90
18797;DHT22;9526;52.612;13.300;2023-11-21T10:37:32;5.40;99.90
18797;DHT22;9526;52.612;13.300;2023-11-21T10:39:57;5.40;99.90
18797;DHT22;9526;52.612;13.300;2023-11-21T10:42:22;5.40;99.90
18797;DHT22;9526;52.612;13.300;2023-11-21T10:44:46;5.30;99.90
18797;DHT22;9526;52.612;13.300;2023-11-21T10:47:12;5.30;99.90
18797;DHT22;9526;52.612;13.300;2023-11-21T10:49:37;5.40;99.90
18797;DHT22;9526;52.612;13.300;2023-11-21T10:52:03;5.40;99.90
18797;DHT22;9526;52.612;13.300;2023-11-21T10:54:27;5.40;99.90
18797;DHT22;9526;52.612;13.300;2023-11-21T10:56:57;5.50;99.90
18797;DHT22;9526;52.612;13.300;2023-11-21T10:59:22;5.40;99.90
18797;DHT22;9526;52.612;13.300;2023-11-21T11:01:47;5.30;99.90
18797;DHT22;9526;52.612;13.300;2023-11-21T11:04:15;5.30;99.90
18797;DHT22;9526;52.612;13.300;2023-11-21T11:06:43;5.30;99.90
18797;DHT22;9526;52.612;13.300;2023-11-21T11:09:09;5.30;99.90
18797;DHT22;9526;52.612;13.300;2023-11-21T11:11:35;5.30;99.90
18797;DHT22;9526;52.612;13.300;2023-11-21T11:14:01;5.40;99.90
18797;DHT22;9526;52.612;13.300;2023-11-21T11:16:25;5.30;99.90
18797;DHT22;9526;52.612;13.300;2023-11-21T11:18:50;5.30;99.90
18797;DHT22;9526;52.612;13.300;2023-11-21T11:21:25;5.30;99.90
18797;DHT22;9526;52.612;13.300;2023-11-21T11:24:16;5.30;99.90
18797;DHT22;9526;52.612;13.300;2023-11-21T11:26:56;5.30;99.90
18797;DHT22;9526;52.612;13.300;2023-11-21T11:29:28;5.40;99.90
18797;DHT22;9526;52.612;13.300;2023-11-21T11:32:07;5.50;99.90
18797;DHT22;9526;52.612;13.300;2023-11-21T11:34:39;5.60;99.90
18797;DHT22;9526;52.612;13.300;2023-11-21T11:37:07;5.60;99.90
18797;DHT22;9526;52.612;13.300;2023-11-21T11:39:35;5.60;99.90
18797;DHT22;9526;52.612;13.300;2023-11-21T11:42:02;5.60;99.90
18797;DHT22;9526;52.612;13.300;2023-11-21T11:44:47;5.60;99.90
18797;DHT22;9526;52.612;13.300;2023-11-21T11:47:15;5.60;99.90
18797;DHT22;9526;52.612;13.300;2023-11-21T11:49:56;5.60;99.90
18797;DHT22;9526;52.612;13.300;2023-11-21T11:52:35;5.50;99.90
18797;DHT22;9526;52.612;13.300;2023-11-21T11:55:01;5.40;99.90
18797;DHT22;9526;52.612;13.300;2023-11-21T11:57:26;5.20;99.90
18797;DHT22;9526;52.612;13.300;2023-11-21T12:00:11;5.20;99.90
18797;DHT22;9526;52.612;13.300;2023-11-21T12:02:39;5.20;99.90
18797;DHT22;9526;52.612;13.300;2023-11-21T12:05:08;5.20;99.90
18797;DHT22;9526;52.612;13.300;2023-11-21T12:07:45;5.30;99.90
18797;DHT22;9526;52.612;13.300;2023-11-21T12:10:12;5.20;99.90
18797;DHT22;9526;52.612;13.300;2023-11-21T12:12:42;5.10;99.90
18797;DHT22;9526;52.612;13.300;2023-11-21T12:15:07;5.30;99.90
18797;DHT22;9526;52.612;13.300;2023-11-21T12:17:32;5.30;99.90
18797;DHT22;9526;52.612;13.300;2023-11-21T12:20:02;5.30;99.90
18797;DHT22;9526;52.612;13.300;2023-11-21T12:22:28;5.30;99.90
18797;DHT22;9526;52.612;13.300;2023-11-21T12:24:54;5.30;99.90
18797;DHT22;9526;52.612;13.300;2023-11-21T12:27:21;5.40;99.90
18797;DHT22;9526;52.612;13.300;2023-11-21T12:29:44;5.40;99.90
18797;DHT22;9526;52.612;13.300;2023-11-21T12:32:08;5.40;99.90
18797;DHT22;9526;52.612;13.300;2023-11-21T12:34:32;5.40;99.90
18797;DHT22;9526;52.612;13.300;2023-11-21T12:36:56;5.40;99.90
18797;DHT22;9526;52.612;13.300;2023-11-21T12:39:22;5.30;99.90
18797;DHT22;9526;52.612;13.300;2023-11-21T12:41:47;5.30;99.90
18797;DHT22;9526;52.612;13.300;2023-11-21T12:44:12;5.20;99.90
18797;DHT22;9526;52.612;13.300;2023-11-21T12:46:41;5.10;99.90
18797;DHT22;9526;52.612;13.300;2023-11-21T12:49:07;5.00;99.90
18797;DHT22;9526;52.612;13.300;2023-11-21T12:51:32;5.10;99.90
18797;DHT22;9526;52.612;13.300;2023-11-21T12:53:57;5.00;99.90
18797;DHT22;9526;52.612;13.300;2023-11-21T12:56:22;4.90;99.90
18797;DHT22;9526;52.612;13.300;2023-11-21T12:58:48;4.90;99.90
18797;DHT22;9526;52.612;13.300;2023-11-21T13:01:14;4.90;99.90
18797;DHT22;9526;52.612;13.300;2023-11-21T13:03:41;4.90;99.90
18797;DHT22;9526;52.612;13.300;2023-11-21T13:06:08;4.80;99.90
18797;DHT22;9526;52.612;13.300;2023-11-21T13:08:33;4.90;99.90
18797;DHT22;9526;52.612;13.300;2023-11-21T13:10:57;4.80;99.90
18797;DHT22;9526;52.612;13.300;2023-11-21T13:13:21;4.90;99.90
18797;DHT22;9526;52.612;13.300;2023-11-21T13:15:49;4.80;99.90
18797;DHT22;9526;52.612;13.300;2023-11-21T13:18:15;4.80;99.90
18797;DHT22;9526;52.612;13.300;2023-11-21T13:20:40;4.80;99.90
18797;DHT22;9526;52.612;13.300;2023-11-21T13:23:08;4.70;99.90
18797;DHT22;9526;52.612;13.300;2023-11-21T13:25:34;4.70;99.90
18797;DHT22;9526;52.612;13.300;2023-11-21T13:27:59;4.60;99.90
18797;DHT22;9526;52.612;13.300;2023-11-21T13:30:24;4.50;99.90
18797;DHT22;9526;52.612;13.300;2023-11-21T13:32:51;4.60;99.90
18797;DHT22;9526;52.612;13.300;2023-11-21T13:35:15;4.50;99.90
18797;DHT22;9526;52.612;13.300;2023-11-21T13:37:43;4.60;99.90
18797;DHT22;9526;52.612;13.300;2023-11-21T13:40:08;4.60;99.90
18797;DHT22;9526;52.612;13.300;2023-11-21T13:42:36;4.60;99.90
18797;DHT22;9526;52.612;13.300;2023-11-21T13:45:00;4.50;99.90
18797;DHT22;9526;52.612;13.300;2023-11-21T13:47:25;4.60;99.90
18797;DHT22;9526;52.612;13.300;2023-11-21T13:49:53;4.50;99.90
18797;DHT22;9526;52.612;13.300;2023-11-21T13:52:17;4.50;99.90
18797;DHT22;9526;52.612;13.300;2023-11-21T13:54:44;4.40;99.90
18797;DHT22;9526;52.612;13.300;2023-11-21T13:57:09;4.50;99.90
18797;DHT22;9526;52.612;13.300;2023-11-21T13:59:33;4.40;99.90
18797;DHT22;9526;52.612;13.300;2023-11-21T14:01:58;4.30;99.90
18797;DHT22;9526;52.612;13.300;2023-11-21T14:04:40;4.30;99.90
18797;DHT22;9526;52.612;13.300;2023-11-21T14:07:19;4.30;99.90
18797;DHT22;9526;52.612;13.300;2023-11-21T14:09:58;4.30;99.90
18797;DHT22;9526;52.612;13.300;2023-11-21T14:12:23;4.20;99.90
18797;DHT22;9526;52.612;13.300;2023-11-21T14:14:46;4.30;99.90
18797;DHT22;9526;52.612;13.300;2023-11-21T14:17:10;4.20;99.90
18797;DHT22;9526;52.612;13.300;2023-11-21T14:19:34;4.20;99.90
18797;DHT22;9526;52.612;13.300;2023-11-21T14:22:03;4.20;99.90
18797;DHT22;9526;52.612;13.300;2023-11-21T14:24:28;4.10;99.90
18797;DHT22;9526;52.612;13.300;2023-11-21T14:26:54;4.10;99.90
18797;DHT22;9526;52.612;13.300;2023-11-21T14:29:19;4.10;99.90
18797;DHT22;9526;52.612;13.300;2023-11-21T14:31:42;4.00;99.90
18797;DHT22;9526;52.612;13.300;2023-11-21T14:34:07;3.90;99.90
18797;DHT22;9526;52.612;13.300;2023-11-21T14:36:32;3.80;99.90
18797;DHT22;9526;52.612;13.300;2023-11-21T14:38:56;3.80;99.90
18797;DHT22;9526;52.612;13.300;2023-11-21T14:41:21;3.80;99.90
18797;DHT22;9526;52.612;13.300;2023-11-21T14:43:47;3.80;99.90
18797;DHT22;9526;52.612;13.300;2023-11-21T14:46:12;3.80;99.90
18797;DHT22;9526;52.612;13.300;2023-11-21T14:48:39;3.80;99.90
18797;DHT22;9526;52.612;13.300;2023-11-21T14:51:05;3.80;99.90
18797;DHT22;9526;52.612;13.300;2023-11-21T14:53:49;3.80;99.90
18797;DHT22;9526;52.612;13.300;2023-11-21T14:56:15;3.80;99.90
18797;DHT22;9526;52.612;13.300;2023-11-21T14:58:49;3.80;99.90
18797;DHT22;9526;52.612;13.300;2023-11-21T15:01:12;3.80;99.90
18797;DHT22;9526;52.612;13.300;2023-11-21T15:03:36;3.70;99.90
18797;DHT22;9526;52.612;13.300;2023-11-21T15:06:12;3.80;99.90
18797;DHT22;9526;52.612;13.300;2023-11-21T15:08:49;3.80;99.90
18797;DHT22;9526;52.612;13.300;2023-11-21T15:11:22;3.80;99.90
18797;DHT22;9526;52.612;13.300;2023-11-21T15:13:54;3.80;99.90
18797;DHT22;9526;52.612;13.300;2023-11-21T15:16:17;3.70;99.90
18797;DHT22;9526;52.612;13.300;2023-11-21T15:18:41;3.70;99.90
18797;DHT22;9526;52.612;13.300;2023-11-21T15:21:05;3.80;99.90
18797;DHT22;9526;52.612;13.300;2023-11-21T15:23:33;3.70;99.90
18797;DHT22;9526;52.612;13.300;2023-11-21T15:25:57;3.70;99.90
18797;DHT22;9526;52.612;13.300;2023-11-21T15:28:21;3.70;99.90
18797;DHT22;9526;52.612;13.300;2023-11-21T15:30:48;3.60;99.90
18797;DHT22;9526;52.612;13.300;2023-11-21T15:33:13;3.60;99.90
18797;DHT22;9526;52.612;13.300;2023-11-21T15:35:37;3.60;99.90